Portsmouth, OH

7:55 AM EDT on August 27, 2016 (GMT -0400)
Thomas Hollow | | Change Station
Active Advisory: Special Statement

Elev 719 ft 38.89 °N, 82.97 °W | Updated 5 seconds ago

Fog
Fog
72.1 °F
Feels Like 72.1 °F
N
0.0
Wind Variable Wind from East
Gusts 0.0 mph

Today
High -- | Low -- °F
--% Chance of Precip.
Yesterday
High -- | Low -- °F
Precip. -- in
Pressure 30.10 in
Visibility 0.2 miles
Clouds
Dew Point 71 °F
Humidity 97%
Rainfall 0.00 in
Snow Depth Not available.
6:56 AM 8:08 PM
Waning Crescent, 25% visible
METAR KHTS 271151Z 00000KT 1/4SM FG VV001 23/22 A3012 RMK AO2 SLP191 T02280217 10239 20222 51003
Pressure 30.10 in
Visibility 0.2 miles
Clouds
Dew Point 71 °F
Humidity 97%
Rainfall 0.00 in
Snow Depth Not available.
6:56 AM 8:08 PM
Waning Crescent, 25% visible
METAR KHTS 271151Z 00000KT 1/4SM FG VV001 23/22 A3012 RMK AO2 SLP191 T02280217 10239 20222 51003

10-Day Weather Forecast

Almanac

Astronomy

Aug. 27, 2016 Rise Set
Actual Time
Civil Twilight
Nautical Twilight
Astronomical Twilight
Moon
Length of Visible Light
Length of Day
Tomorrow will be .
, % of the Moon is Illuminated

Today's Extremes

State Highs State Lows

Community

WunderPhotos

Upload Photos

1,935,325 photos uploaded!

WunderBlog® & News

Nearby

Air Quality

  Air Quality AQ Index Pollutant
Not available.

Snow Depth

Station Depth Elevation

Earthquake Activity

City Distance Mag. Time & Date
Minimum magnitude displayed is 2.5.

Coastal Water Temperatures

Place Temperature

Stations

Nearby Weather Stations

Station Location Temp. Windchill Dew Point Humidity Wind Precip. Elev Updated Type
                   

Watches & Warnings

Special Statement
Issued: 6:01 AM EDT Aug. 27, 2016 – National Weather Service

... Very warm and humid conditions to continue today...

High temperatures in the upper 80s to the lower 90s will combine
with high humidities to produce heat indices in the mid and upper
90s this afternoon.

If possible... spend more time in air conditioned or well
ventilated places this afternoon. If you will be outside... wear
light weight and loose fitting clothing and drink plenty of water.